Time;durP1;ratioP1;P1;durP2;ratioP2;P2;SDS_P1;SDS_P2;PMS_P1;PMS_P2;Temp;Humidity;BMP_temperature;BMP_pressure;BME280_temperature;BME280_humidity;BME280_pressure;Samples;Min_cycle;Max_cycle;Signal;HPM_P1;HPM_P2
2023/04/12 00:00:51;;;;;;;7.47;3.08;;;9.80;99.90;;;8.87;100.00;96845.97;4900086;29;20411;-74
2023/04/12 00:03:19;;;;;;;7.27;3.07;;;9.80;99.90;;;8.85;100.00;96840.13;4900245;29;20454;-75
2023/04/12 00:05:45;;;;;;;5.47;2.55;;;9.80;99.90;;;8.86;100.00;96845.16;4900588;29;20912;-75
2023/04/12 00:08:13;;;;;;;6.85;2.80;;;9.80;99.90;;;8.84;100.00;96839.34;4901667;29;20427;-75
2023/04/12 00:10:39;;;;;;;6.60;2.45;;;9.80;99.90;;;8.84;100.00;96828.78;4901093;29;20414;-75
2023/04/12 00:13:05;;;;;;;7.22;2.83;;;9.80;99.90;;;8.86;100.00;96831.16;4901752;29;20415;-75
2023/04/12 00:15:31;;;;;;;8.07;2.80;;;9.80;99.90;;;8.93;100.00;96826.47;4901819;29;20418;-75
2023/04/12 00:17:57;;;;;;;6.65;2.95;;;9.90;99.90;;;8.89;100.00;96820.88;4900500;29;20411;-75
2023/04/12 00:20:26;;;;;;;4.47;2.20;;;9.80;99.90;;;8.91;100.00;96818.78;4899921;29;20871;-75
2023/04/12 00:22:52;;;;;;;5.82;2.90;;;9.80;99.90;;;8.90;100.00;96819.84;4899698;29;20447;-75
2023/04/12 00:25:18;;;;;;;7.25;2.88;;;9.90;99.90;;;8.89;100.00;96820.88;4901279;29;20577;-75
2023/04/12 00:27:44;;;;;;;8.85;2.92;;;9.90;99.90;;;8.83;100.00;96813.97;4902817;29;20431;-75
2023/04/12 00:30:12;;;;;;;8.20;2.60;;;9.80;99.90;;;8.84;100.00;96814.78;4902260;29;20465;-75
2023/04/12 00:32:38;;;;;;;8.83;3.00;;;9.80;99.90;;;8.81;100.00;96815.28;4900707;29;20418;-75
2023/04/12 00:35:05;;;;;;;8.13;3.13;;;9.80;99.90;;;8.76;100.00;96813.41;4901203;29;20403;-74
2023/04/12 00:37:35;;;;;;;12.03;3.37;;;9.70;99.90;;;8.68;100.00;96807.81;4903670;29;20466;-74
2023/04/12 00:40:01;;;;;;;10.90;3.38;;;9.60;99.90;;;8.71;100.00;96808.09;4901794;29;20486;-75
2023/04/12 00:42:27;;;;;;;9.88;3.88;;;9.60;99.90;;;8.64;100.00;96812.00;4900906;29;20467;-74
2023/04/12 00:44:53;;;;;;;9.07;3.28;;;9.60;99.90;;;8.51;100.00;96802.66;4901453;29;20418;-74
2023/04/12 00:47:19;;;;;;;9.23;3.67;;;9.50;99.90;;;8.45;100.00;96804.47;4900765;29;20415;-75
2023/04/12 00:49:45;;;;;;;8.50;3.95;;;9.40;99.90;;;8.41;100.00;96795.47;4900431;29;20893;-75
2023/04/12 00:52:14;;;;;;;9.35;4.10;;;9.40;99.90;;;8.39;100.00;96791.50;4913409;29;20413;-75
2023/04/12 00:54:43;;;;;;;10.52;4.10;;;9.40;99.90;;;8.34;100.00;96791.47;4919159;29;20899;-75
2023/04/12 00:57:09;;;;;;;14.50;5.22;;;9.30;99.90;;;8.33;100.00;96789.84;4919824;29;20409;-75
2023/04/12 00:59:36;;;;;;;17.15;5.55;;;9.30;99.90;;;8.30;100.00;96785.03;4920178;29;20812;-75
2023/04/12 01:02:02;;;;;;;12.77;5.07;;;9.30;99.90;;;8.14;100.00;96782.28;4920920;29;20409;-75
2023/04/12 01:04:28;;;;;;;13.18;5.03;;;9.10;99.90;;;8.09;100.00;96782.22;4920353;29;20419;-75
2023/04/12 01:07:14;;;;;;;17.50;5.75;;;9.10;99.90;;;8.00;100.00;96782.94;4922734;29;20441;-75
2023/04/12 01:09:55;;;;;;;19.25;6.70;;;9.00;99.90;;;8.01;100.00;96780.06;4923090;29;20435;-75
2023/04/12 01:12:35;;;;;;;17.70;6.30;;;9.00;99.90;;;7.92;100.00;96771.00;4923344;29;20502;-75
2023/04/12 01:15:07;;;;;;;13.57;5.97;;;9.00;99.90;;;7.89;100.00;96776.78;4922796;29;20409;-75
2023/04/12 01:17:41;;;;;;;23.57;7.93;;;8.90;99.90;;;7.99;100.00;96766.31;4921358;29;20500;-75
2023/04/12 01:20:15;;;;;;;18.58;7.40;;;9.00;99.90;;;7.92;100.00;96762.28;4921528;29;20776;-75
2023/04/12 01:23:12;;;;;;;16.73;7.60;;;8.90;99.90;;;7.93;100.00;96772.59;4922062;29;20421;-75
2023/04/12 01:25:57;;;;;;;27.77;8.68;;;9.00;99.90;;;8.00;100.00;96769.75;4922088;29;20500;-75
2023/04/12 01:28:33;;;;;;;17.80;7.35;;;9.00;99.90;;;7.94;100.00;96762.84;4925690;29;20876;-75
2023/04/12 01:31:02;;;;;;;25.90;8.85;;;8.90;99.90;;;8.01;100.00;96755.53;4924536;29;20494;-75
2023/04/12 01:33:30;;;;;;;26.60;9.52;;;9.00;99.90;;;7.95;100.00;96749.44;4925216;29;20433;-74
2023/04/12 01:35:59;;;;;;;17.65;7.15;;;9.00;99.90;;;7.84;100.00;96754.84;4927109;29;20467;-74
2023/04/12 01:38:26;;;;;;;21.90;7.83;;;8.90;99.90;;;7.82;100.00;96743.75;4926579;29;20474;-74
2023/04/12 01:40:53;;;;;;;17.00;7.20;;;8.90;99.90;;;7.80;100.00;96744.00;4924872;29;20421;-75
2023/04/12 01:43:19;;;;;;;19.42;7.60;;;8.90;99.90;;;7.82;100.00;96735.88;4926434;29;20444;-75
2023/04/12 01:45:48;;;;;;;19.80;7.10;;;8.80;99.90;;;7.84;100.00;96731.13;4927141;29;20440;-74
2023/04/12 01:48:14;;;;;;;21.73;8.18;;;8.90;99.90;;;7.87;100.00;96728.00;4926414;29;20848;-74
2023/04/12 01:50:55;;;;;;;21.43;8.20;;;8.90;99.90;;;7.88;100.00;96726.97;4926374;29;20425;-75
2023/04/12 01:53:36;;;;;;;32.35;9.40;;;8.90;99.90;;;7.89;100.00;96718.81;4926690;29;20488;-74
2023/04/12 01:56:08;;;;;;;28.43;8.73;;;8.90;99.90;;;7.83;100.00;96719.78;4926031;29;20425;-75
2023/04/12 01:58:35;;;;;;;23.60;9.02;;;8.80;99.90;;;7.78;100.00;96706.56;4925991;29;20406;-75
2023/04/12 02:01:04;;;;;;;32.30;9.98;;;8.80;99.90;;;7.76;100.00;96704.19;4926098;29;20896;-74
2023/04/12 02:03:31;;;;;;;25.40;8.95;;;8.70;99.90;;;7.67;100.00;96699.59;4924583;29;20417;-74
2023/04/12 02:05:58;;;;;;;25.73;8.33;;;8.60;99.90;;;7.55;100.00;96699.75;4925242;29;20413;-75
2023/04/12 02:08:26;;;;;;;26.30;8.55;;;8.50;99.90;;;7.48;100.00;96699.16;4924879;29;20436;-75
2023/04/12 02:10:53;;;;;;;22.77;8.85;;;8.50;99.90;;;7.43;100.00;96690.44;4925603;29;20473;-74
2023/04/12 02:13:21;;;;;;;30.70;9.65;;;8.40;99.90;;;7.47;100.00;96675.72;4926376;29;20449;-74
2023/04/12 02:15:47;;;;;;;31.17;9.40;;;8.40;99.90;;;7.43;100.00;96677.25;4924682;29;20433;-75
2023/04/12 02:18:16;;;;;;;28.65;8.98;;;8.40;99.90;;;7.39;100.00;96671.69;4925674;29;20440;-75
2023/04/12 02:20:42;;;;;;;27.50;9.60;;;8.40;99.90;;;7.36;100.00;96674.81;4925716;29;20559;-75
2023/04/12 02:23:08;;;;;;;29.17;9.70;;;8.30;99.90;;;7.42;100.00;96668.56;4926328;29;20409;-75
2023/04/12 02:25:34;;;;;;;29.97;9.27;;;8.40;99.90;;;7.32;100.00;96658.72;4926214;29;20420;-75
2023/04/12 02:28:00;;;;;;;34.72;10.25;;;8.30;99.90;;;7.43;100.00;96654.38;4927076;29;20508;-75
2023/04/12 02:30:26;;;;;;;31.55;10.23;;;8.40;99.90;;;7.42;100.00;96655.41;4926654;29;20963;-74
2023/04/12 02:32:52;;;;;;;27.42;9.18;;;8.40;99.90;;;7.38;100.00;96647.19;4925347;29;20436;-74
2023/04/12 02:35:21;;;;;;;26.92;9.23;;;8.40;99.90;;;7.36;100.00;96643.22;4926762;29;20409;-74
2023/04/12 02:37:47;;;;;;;30.27;9.82;;;8.40;99.90;;;7.40;100.00;96646.94;4926616;29;20409;-75
2023/04/12 02:40:14;;;;;;;29.40;9.23;;;8.40;99.90;;;7.37;100.00;96639.53;4925216;29;20420;-75
2023/04/12 02:42:41;;;;;;;26.75;9.38;;;8.40;99.90;;;7.39;100.00;96635.63;4925344;29;20421;-75
2023/04/12 02:45:08;;;;;;;41.83;11.63;;;8.40;99.90;;;7.44;100.00;96634.09;4925609;29;20405;-75
2023/04/12 02:47:35;;;;;;;40.10;11.82;;;8.40;99.90;;;7.27;100.00;96634.19;4924909;29;20825;-75
2023/04/12 02:50:03;;;;;;;33.72;10.20;;;8.20;99.90;;;7.13;100.00;96619.84;4925672;29;20454;-74
2023/04/12 02:52:31;;;;;;;41.03;11.63;;;8.20;99.90;;;7.18;100.00;96620.66;4925169;29;20421;-74
2023/04/12 02:54:58;;;;;;;40.60;12.33;;;8.20;99.90;;;7.26;100.00;96614.16;4925651;29;20460;-75
2023/04/12 02:57:24;;;;;;;36.38;11.38;;;8.30;99.90;;;7.19;100.00;96613.56;4926010;29;20497;-75
2023/04/12 02:59:52;;;;;;;41.83;12.25;;;8.20;99.90;;;7.18;100.00;96604.88;4925120;29;20420;-75
2023/04/12 03:02:18;;;;;;;24.30;8.75;;;8.20;99.90;;;7.21;100.00;96604.41;4924407;29;20410;-74
2023/04/12 03:04:45;;;;;;;39.63;12.32;;;8.30;99.90;;;7.29;100.00;96595.25;4924821;29;20412;-75
2023/04/12 03:07:11;;;;;;;42.25;12.23;;;8.30;99.90;;;7.31;100.00;96585.25;4924925;29;20413;-75
2023/04/12 03:09:41;;;;;;;37.85;12.30;;;8.40;99.90;;;7.32;100.00;96579.75;4924847;29;20919;-75
2023/04/12 03:12:07;;;;;;;40.75;11.25;;;8.40;99.90;;;7.29;100.00;96572.34;4926442;29;20457;-75
2023/04/12 03:14:33;;;;;;;53.65;12.80;;;8.40;99.90;;;7.34;100.00;96566.34;4925912;29;20477;-75
2023/04/12 03:17:01;;;;;;;46.40;12.77;;;8.40;99.90;;;7.36;100.00;96569.53;4925844;29;20544;-75
2023/04/12 03:19:29;;;;;;;42.83;13.73;;;8.40;99.90;;;7.42;100.00;96560.63;4925393;29;20445;-75
2023/04/12 03:21:56;;;;;;;45.17;13.27;;;8.40;99.90;;;7.40;100.00;96557.44;4923945;29;20460;-75
2023/04/12 03:24:22;;;;;;;47.78;12.77;;;8.40;99.90;;;7.34;100.00;96550.53;4922974;29;20413;-75
2023/04/12 03:26:51;;;;;;;31.50;10.60;;;8.40;99.90;;;7.36;100.00;96541.34;4923579;29;20487;-75
2023/04/12 03:29:17;;;;;;;46.85;12.57;;;8.40;99.90;;;7.38;100.00;96547.16;4923638;29;20428;-76
2023/04/12 03:31:42;;;;;;;35.85;10.98;;;8.40;99.90;;;7.41;100.00;96540.59;4927055;29;20425;-75
2023/04/12 03:34:08;;;;;;;36.05;11.05;;;8.40;99.90;;;7.45;100.00;96541.66;4926819;29;20416;-75
2023/04/12 03:36:34;;;;;;;49.65;13.55;;;8.50;99.90;;;7.48;100.00;96543.00;4927183;29;20409;-75
2023/04/12 03:39:00;;;;;;;42.50;13.32;;;8.50;99.90;;;7.50;100.00;96523.28;4927550;29;20427;-75
2023/04/12 03:41:27;;;;;;;40.57;12.13;;;8.50;99.90;;;7.46;100.00;96526.66;4927585;29;20432;-75
2023/04/12 03:43:55;;;;;;;48.13;14.02;;;8.50;99.90;;;7.54;100.00;96526.19;4928017;29;20424;-75
2023/04/12 03:46:21;;;;;;;43.30;12.63;;;8.50;99.90;;;7.45;100.00;96519.81;4928560;29;20919;-75
2023/04/12 03:48:48;;;;;;;48.73;15.07;;;8.50;99.90;;;7.53;100.00;96519.34;4927787;29;20425;-75
2023/04/12 03:51:14;;;;;;;51.40;14.05;;;8.50;99.90;;;7.43;100.00;96521.91;4924814;29;20506;-75
2023/04/12 03:53:40;;;;;;;44.13;13.65;;;8.40;99.90;;;7.29;100.00;96511.78;4924832;29;20420;-74
2023/04/12 03:56:08;;;;;;;40.70;11.60;;;8.30;99.90;;;7.22;100.00;96505.16;4924343;29;20425;-74
2023/04/12 03:58:35;;;;;;;31.27;11.07;;;8.20;99.90;;;7.23;100.00;96510.16;4908308;29;20409;-74
2023/04/12 04:01:04;;;;;;;49.15;12.70;;;8.20;99.90;;;7.26;100.00;96499.16;4924089;29;20427;-74
2023/04/12 04:03:33;;;;;;;50.90;15.93;;;8.30;99.90;;;7.38;100.00;96494.50;4923988;29;20481;-73
2023/04/12 04:06:00;;;;;;;62.05;15.30;;;8.30;99.90;;;7.29;100.00;96487.34;4923860;29;20417;-73
2023/04/12 04:08:27;;;;;;;59.05;16.23;;;8.30;99.90;;;7.33;100.00;96488.41;4923834;29;20445;-73
2023/04/12 04:10:53;;;;;;;58.88;16.35;;;8.30;99.90;;;7.27;100.00;96484.94;4924151;29;21077;-73
2023/04/12 04:13:19;;;;;;;79.22;23.40;;;8.30;99.90;;;7.31;100.00;96478.13;4922441;29;20824;-73
2023/04/12 04:15:46;;;;;;;63.88;17.52;;;8.20;99.90;;;7.18;100.00;96481.19;4923988;29;20417;-73
2023/04/12 04:18:13;;;;;;;72.70;18.40;;;8.20;99.90;;;7.20;100.00;96470.41;4924188;29;20420;-75
2023/04/12 04:20:39;;;;;;;77.72;22.27;;;8.20;99.90;;;7.32;100.00;96460.47;4926938;29;20413;-75
2023/04/12 04:23:05;;;;;;;97.03;23.03;;;8.30;99.90;;;7.28;100.00;96460.22;4924714;29;20775;-75
2023/04/12 04:25:32;;;;;;;100.03;20.38;;;8.30;99.90;;;7.26;100.00;96458.88;4928819;29;20413;-75
2023/04/12 04:27:58;;;;;;;85.80;22.33;;;8.30;99.90;;;7.26;100.00;96451.78;4925386;29;20438;-75
2023/04/12 04:30:25;;;;;;;86.28;23.08;;;8.30;99.90;;;7.31;100.00;96445.72;4924777;29;20451;-75
2023/04/12 04:32:51;;;;;;;89.35;22.98;;;8.30;99.90;;;7.27;100.00;96448.09;4924206;29;20413;-75
2023/04/12 04:35:20;;;;;;;90.07;22.35;;;8.30;99.90;;;7.28;100.00;96438.34;4924052;29;20507;-75
2023/04/12 04:37:47;;;;;;;71.85;19.95;;;8.30;99.90;;;7.22;100.00;96439.34;4923967;29;20425;-75
2023/04/12 04:40:17;;;;;;;91.20;22.88;;;8.30;99.90;;;7.25;100.00;96442.28;4923499;29;20472;-76
2023/04/12 04:42:45;;;;;;;87.50;24.45;;;8.30;99.90;;;7.32;100.00;96436.78;4924220;29;21010;-75
2023/04/12 04:45:13;;;;;;;95.18;23.33;;;8.30;99.90;;;7.26;100.00;96443.06;4924083;29;20428;-75
2023/04/12 04:47:40;;;;;;;101.17;25.30;;;8.30;99.90;;;7.26;100.00;96443.88;4924751;29;20438;-75
2023/04/12 04:50:07;;;;;;;104.43;26.38;;;8.30;99.90;;;7.23;100.00;96435.66;4925307;29;20418;-74
2023/04/12 04:52:36;;;;;;;96.33;24.90;;;8.20;99.90;;;7.25;100.00;96434.38;4924412;29;20422;-75
2023/04/12 04:55:04;;;;;;;120.18;28.55;;;8.20;99.90;;;7.21;100.00;96427.25;4924628;29;20421;-75
2023/04/12 04:57:30;;;;;;;109.40;29.20;;;8.20;99.90;;;7.24;100.00;96432.78;4925609;29;20410;-74
2023/04/12 04:59:56;;;;;;;109.80;28.08;;;8.20;99.90;;;7.13;100.00;96427.72;4925297;29;20519;-74
2023/04/12 05:02:22;;;;;;;86.22;22.15;;;8.20;99.90;;;7.07;100.00;96426.88;4924434;29;20417;-73
2023/04/12 05:04:48;;;;;;;106.65;25.35;;;8.10;99.90;;;7.10;100.00;96429.00;4925218;29;20447;-75
2023/04/12 05:07:14;;;;;;;114.65;27.95;;;8.10;99.90;;;7.20;100.00;96423.84;4925119;29;20471;-74
2023/04/12 05:09:42;;;;;;;104.20;24.95;;;8.20;99.90;;;7.12;100.00;96428.75;4924499;29;20421;-74
2023/04/12 05:12:08;;;;;;;109.00;29.42;;;8.10;99.90;;;7.21;100.00;96424.63;4926107;29;20476;-74
2023/04/12 05:14:34;;;;;;;111.53;24.70;;;8.20;99.90;;;7.14;100.00;96419.56;4925723;29;20413;-74
2023/04/12 05:17:01;;;;;;;98.03;24.45;;;8.20;99.90;;;7.18;100.00;96422.47;4924972;29;20424;-74
2023/04/12 05:19:28;;;;;;;112.38;25.95;;;8.20;99.90;;;7.21;100.00;96414.91;4919748;29;20445;-75
2023/04/12 05:21:55;;;;;;;99.85;23.65;;;8.20;99.90;;;7.20;100.00;96409.88;4922153;29;20413;-75
2023/04/12 05:24:21;;;;;;;105.10;22.98;;;8.20;99.90;;;7.24;100.00;96413.56;4921925;29;20489;-75
2023/04/12 05:26:48;;;;;;;82.63;22.98;;;8.30;99.90;;;7.31;100.00;96407.03;4922214;29;20872;-75
2023/04/12 05:29:14;;;;;;;80.35;22.42;;;8.30;99.90;;;7.32;100.00;96402.56;4911695;29;20494;-74
2023/04/12 05:31:40;;;;;;;76.88;21.30;;;8.30;99.90;;;7.33;100.00;96401.53;4903268;29;20551;-74
2023/04/12 05:34:06;;;;;;;73.70;21.50;;;8.30;99.90;;;7.34;100.00;96403.91;4903783;29;20935;-75
2023/04/12 05:36:32;;;;;;;89.20;24.88;;;8.30;99.90;;;7.38;100.00;96397.09;4903575;29;20876;-75
2023/04/12 05:38:58;;;;;;;81.53;21.63;;;8.40;99.90;;;7.36;100.00;96395.78;4900425;29;20957;-73
2023/04/12 05:41:24;;;;;;;79.43;22.42;;;8.40;99.90;;;7.37;100.00;96387.59;4897035;29;20419;-73
2023/04/12 05:43:51;;;;;;;90.97;24.95;;;8.40;99.90;;;7.41;100.00;96385.25;4897332;29;20418;-73
2023/04/12 05:46:17;;;;;;;111.18;26.70;;;8.40;99.90;;;7.37;100.00;96381.53;4897248;29;20415;-73
2023/04/12 05:48:43;;;;;;;94.57;26.30;;;8.40;99.90;;;7.38;100.00;96372.59;4896959;29;20824;-74
2023/04/12 05:51:09;;;;;;;102.45;25.30;;;8.40;99.90;;;7.25;100.00;96365.16;4893919;29;20418;-73
2023/04/12 05:53:36;;;;;;;76.87;23.30;;;8.20;99.90;;;7.27;100.00;96358.59;4896880;29;20430;-74
2023/04/12 05:56:02;;;;;;;96.25;24.75;;;8.20;99.90;;;7.28;100.00;96354.13;4897400;29;20418;-74
2023/04/12 05:58:28;;;;;;;67.72;20.02;;;8.20;99.90;;;7.25;100.00;96347.53;4895879;29;20743;-73
2023/04/12 06:00:57;;;;;;;88.90;22.95;;;8.20;99.90;;;7.33;100.00;96340.97;4897006;29;20502;-73
2023/04/12 06:03:24;;;;;;;72.10;23.35;;;8.30;99.90;;;7.34;100.00;96337.31;4896627;29;20421;-72
2023/04/12 06:05:50;;;;;;;78.23;20.83;;;8.20;99.90;;;7.30;100.00;96334.38;4896091;29;20415;-73
2023/04/12 06:08:16;;;;;;;77.55;22.33;;;8.30;99.90;;;7.34;100.00;96322.31;4896361;29;20449;-73
2023/04/12 06:10:42;;;;;;;60.45;17.83;;;8.30;99.90;;;7.32;100.00;96323.59;4895697;29;20893;-73
2023/04/12 06:13:08;;;;;;;76.67;19.83;;;8.30;99.90;;;7.35;100.00;96323.09;4895098;29;20410;-73
2023/04/12 06:15:35;;;;;;;60.83;17.58;;;8.30;99.90;;;7.39;100.00;96309.16;4896499;29;20466;-73
2023/04/12 06:18:05;;;;;;;60.97;17.08;;;8.40;99.90;;;7.44;100.00;96311.03;4890900;29;20973;-73
2023/04/12 06:20:31;;;;;;;60.30;17.98;;;8.40;99.90;;;7.52;100.00;96307.88;4887628;29;20417;-73
2023/04/12 06:22:57;;;;;;;60.88;16.77;;;8.50;99.90;;;7.55;100.00;96314.50;4895815;29;20972;-73
2023/04/12 06:25:24;;;;;;;54.95;16.17;;;8.50;99.90;;;7.60;100.00;96303.97;4894532;29;20411;-73
2023/04/12 06:27:50;;;;;;;44.53;13.90;;;8.60;99.90;;;7.64;100.00;96295.31;4895842;29;20411;-74
2023/04/12 06:30:16;;;;;;;41.60;13.75;;;8.60;99.90;;;7.71;100.00;96287.94;4898908;29;20774;-75
2023/04/12 06:32:42;;;;;;;49.55;14.38;;;8.70;99.90;;;7.75;100.00;96302.16;4901784;29;20414;-75
2023/04/12 06:35:09;;;;;;;51.72;15.82;;;8.70;99.90;;;7.81;100.00;96294.31;4903710;29;20449;-75
2023/04/12 06:37:35;;;;;;;45.42;13.95;;;8.80;99.90;;;7.83;100.00;96281.66;4896677;29;20857;-76
2023/04/12 06:40:01;;;;;;;39.70;12.75;;;8.80;99.90;;;7.84;100.00;96280.59;4903455;29;20479;-76
2023/04/12 06:42:27;;;;;;;43.78;13.60;;;8.80;99.90;;;7.85;100.00;96277.72;4902504;29;20446;-76
2023/04/12 06:44:53;;;;;;;48.73;16.13;;;8.80;99.90;;;7.87;100.00;96275.63;4918999;29;20419;-75
2023/04/12 06:47:21;;;;;;;42.72;13.35;;;8.80;99.90;;;7.77;100.00;96262.41;4901473;29;20427;-75
2023/04/12 06:49:47;;;;;;;40.92;14.07;;;8.70;99.90;;;7.80;100.00;96261.91;4894348;29;20423;-76
2023/04/12 06:52:14;;;;;;;31.83;11.93;;;8.70;99.90;;;7.80;100.00;96266.38;4894770;29;20857;-77
2023/04/12 06:54:41;;;;;;;39.53;13.15;;;8.70;99.90;;;7.75;100.00;96261.88;4896732;29;20501;-77
2023/04/12 06:57:09;;;;;;;34.45;11.55;;;8.60;99.90;;;7.74;100.00;96255.03;4903857;29;20858;-77
2023/04/12 06:59:38;;;;;;;40.75;12.45;;;8.70;99.90;;;7.75;100.00;96251.34;4888682;29;20495;-78
2023/04/12 07:02:06;;;;;;;37.37;12.97;;;8.70;99.90;;;7.74;100.00;96244.50;4889250;29;20454;-76
2023/04/12 07:04:32;;;;;;;41.42;12.77;;;8.60;99.90;;;7.81;100.00;96245.03;4892174;29;20474;-76
2023/04/12 07:06:58;;;;;;;39.28;12.90;;;8.70;99.90;;;7.81;100.00;96236.34;4895206;29;20423;-76
2023/04/12 07:09:26;;;;;;;30.92;11.82;;;8.70;99.90;;;7.79;100.00;96228.69;4891381;29;20436;-76
2023/04/12 07:11:52;;;;;;;40.75;14.10;;;8.70;99.90;;;7.81;100.00;96233.72;4907282;29;20442;-75
2023/04/12 07:14:18;;;;;;;34.03;10.85;;;8.70;99.90;;;7.84;100.00;96222.63;4888786;29;20521;-76
2023/04/12 07:16:44;;;;;;;35.83;11.32;;;8.80;99.90;;;7.93;100.00;96219.22;4894440;29;20968;-77
2023/04/12 07:19:11;;;;;;;40.87;12.63;;;8.90;99.90;;;8.03;100.00;96213.97;4904275;29;20462;-76
2023/04/12 07:21:37;;;;;;;33.20;12.20;;;8.90;99.90;;;8.12;100.00;96212.38;4900705;29;20418;-76
2023/04/12 07:24:05;;;;;;;27.35;11.70;;;9.00;99.90;;;8.15;100.00;96197.88;4893436;29;20414;-76
2023/04/12 07:26:33;;;;;;;20.65;9.80;;;9.00;99.90;;;8.21;100.00;96196.03;4894045;29;20412;-76
2023/04/12 07:28:59;;;;;;;27.45;11.10;;;9.10;99.90;;;8.25;100.00;96200.53;4879094;29;20425;-75
2023/04/12 07:31:29;;;;;;;25.08;9.80;;;9.20;99.90;;;8.33;100.00;96194.75;4891714;29;20451;-75
2023/04/12 07:33:55;;;;;;;24.25;9.93;;;9.20;99.90;;;8.23;100.00;96191.28;4897928;29;20535;-76
2023/04/12 07:36:21;;;;;;;19.90;9.00;;;9.10;99.90;;;8.18;100.00;96178.13;4889128;29;20426;-76
2023/04/12 07:38:47;;;;;;;21.17;9.23;;;9.10;99.90;;;8.10;100.00;96174.19;4894815;29;21364;-75
2023/04/12 07:41:17;;;;;;;26.95;9.85;;;8.90;99.90;;;8.14;100.00;96143.59;4896151;29;20415;-75
2023/04/12 07:43:44;;;;;;;24.25;8.80;;;9.00;99.90;;;8.18;100.00;96142.03;4895804;29;20814;-75
2023/04/12 07:46:10;;;;;;;23.67;9.15;;;9.10;99.90;;;8.15;100.00;96135.41;4898361;29;20456;-76
2023/04/12 07:48:36;;;;;;;26.33;9.45;;;9.00;99.90;;;8.20;100.00;96128.53;4883739;29;20427;-76
2023/04/12 07:51:03;;;;;;;17.65;8.10;;;9.10;99.90;;;8.32;100.00;96126.47;4896116;29;20510;-75
2023/04/12 07:53:30;;;;;;;28.00;9.90;;;9.20;99.90;;;8.35;100.00;96123.28;4892188;29;20542;-76
2023/04/12 07:55:56;;;;;;;22.13;8.80;;;9.20;99.90;;;8.41;100.00;96120.38;4886246;29;20412;-76
2023/04/12 07:58:23;;;;;;;22.13;9.38;;;9.30;99.90;;;8.46;100.00;96114.31;4896258;29;20426;-75
2023/04/12 08:00:52;;;;;;;22.25;9.05;;;9.30;99.90;;;8.34;100.00;96121.72;4897243;29;20430;-76
2023/04/12 08:03:20;;;;;;;21.88;9.20;;;9.20;99.90;;;8.41;100.00;96120.38;4896255;29;20449;-80
2023/04/12 08:05:51;;;;;;;27.15;9.40;;;9.20;99.90;;;8.34;100.00;96109.34;4892913;29;20409;-79
2023/04/12 08:08:18;;;;;;;18.13;8.07;;;9.20;99.90;;;8.46;100.00;96109.81;4896280;29;20429;-76
2023/04/12 08:10:44;;;;;;;24.83;9.02;;;9.30;99.90;;;8.57;100.00;96102.66;4894318;29;20471;-77
2023/04/12 08:13:11;;;;;;;24.85;9.43;;;9.40;99.90;;;8.65;100.00;96106.56;4894211;29;20419;-75
2023/04/12 08:15:37;;;;;;;18.10;8.32;;;9.50;99.90;;;8.72;100.00;96109.75;4897437;29;20418;-75
2023/04/12 08:18:05;;;;;;;21.48;8.60;;;9.60;99.90;;;8.76;100.00;96100.22;4890487;29;20422;-76
2023/04/12 08:20:31;;;;;;;21.38;8.27;;;9.60;99.90;;;8.81;100.00;96100.19;4885226;29;20495;-75
2023/04/12 08:22:57;;;;;;;21.95;7.85;;;9.70;99.90;;;8.91;100.00;96105.41;4889364;29;20424;-75
2023/04/12 08:25:23;;;;;;;16.10;6.20;;;9.80;99.90;;;9.03;100.00;96108.53;4895348;29;20423;-75
2023/04/12 08:27:50;;;;;;;26.35;9.05;;;9.90;99.90;;;9.03;100.00;96107.72;4889189;29;20523;-76
2023/04/12 08:30:17;;;;;;;17.07;7.60;;;9.90;99.90;;;9.09;100.00;96099.53;4890056;29;20425;-75
2023/04/12 08:32:43;;;;;;;22.27;8.30;;;9.90;99.90;;;9.14;100.00;96101.34;4896675;29;20419;-75
2023/04/12 08:35:10;;;;;;;23.27;7.55;;;10.00;99.90;;;9.12;100.00;96100.81;4890454;29;20423;-76
2023/04/12 08:37:36;;;;;;;22.60;8.90;;;10.00;99.90;;;9.07;100.00;96099.00;4889110;29;20416;-75
2023/04/12 08:40:06;;;;;;;20.73;8.00;;;9.90;99.90;;;9.09;100.00;96099.53;4883656;29;20937;-75
2023/04/12 08:42:37;;;;;;;22.65;7.80;;;10.00;99.90;;;9.15;100.00;96095.81;4897909;29;20515;-76
2023/04/12 08:45:08;;;;;;;18.23;8.05;;;10.00;99.90;;;9.23;100.00;96094.44;4898117;29;20949;-75
2023/04/12 08:47:38;;;;;;;22.77;8.68;;;10.10;99.90;;;9.33;100.00;96099.63;4899683;29;20429;-75
2023/04/12 08:50:08;;;;;;;15.50;7.30;;;10.20;99.90;;;9.40;100.00;96088.78;4899582;29;20431;-76
2023/04/12 08:52:36;;;;;;;20.50;7.82;;;10.20;99.90;;;9.32;100.00;96090.16;4897648;29;20912;-75
2023/04/12 08:55:03;;;;;;;15.52;7.10;;;10.20;99.90;;;9.39;100.00;96085.34;4882120;29;20420;-77
2023/04/12 08:57:31;;;;;;;17.33;7.65;;;10.20;99.90;;;9.37;100.00;96086.69;4882573;29;20440;-76
2023/04/12 09:00:00;;;;;;;21.13;7.72;;;10.20;99.90;;;9.36;100.00;96080.59;4879382;29;20440;-74
2023/04/12 09:02:26;;;;;;;16.85;6.82;;;10.20;99.90;;;9.40;100.00;96076.34;4880059;29;20415;-74
2023/04/12 09:04:52;;;;;;;16.20;6.32;;;10.30;99.90;;;9.46;100.00;96080.53;4881147;29;20416;-74
2023/04/12 09:07:18;;;;;;;17.57;6.63;;;10.30;99.90;;;9.47;100.00;96082.09;4880500;29;20424;-73
2023/04/12 09:09:48;;;;;;;20.38;8.77;;;10.30;99.90;;;9.43;100.00;96065.25;4881247;29;20496;-75
2023/04/12 09:12:16;;;;;;;22.10;7.25;;;10.20;99.90;;;9.36;100.00;96067.41;4879446;29;20409;-75
2023/04/12 09:14:43;;;;;;;13.23;5.72;;;10.20;99.90;;;9.24;100.00;96069.63;4879811;29;20796;-75
2023/04/12 09:17:22;;;;;;;20.00;6.60;;;10.00;99.90;;;9.23;100.00;96057.47;4879047;29;20443;-75
2023/04/12 09:19:48;;;;;;;16.80;5.85;;;10.10;99.90;;;9.35;100.00;96054.47;4881204;29;20413;-75
2023/04/12 09:22:14;;;;;;;17.27;6.57;;;10.20;99.90;;;9.49;100.00;96058.06;4880294;29;20412;-75
2023/04/12 09:24:52;;;;;;;18.60;6.55;;;10.30;99.90;;;9.61;100.00;96053.22;4881221;29;20405;-74
2023/04/12 09:27:21;;;;;;;12.65;5.10;;;10.40;99.90;;;9.92;100.00;96045.81;4880179;29;20420;-74
2023/04/12 09:29:50;;;;;;;13.20;5.60;;;10.60;99.90;;;9.94;100.00;96039.16;4879958;29;21012;-75
2023/04/12 09:32:26;;;;;;;12.13;5.32;;;10.70;99.90;;;10.09;100.00;96039.00;4880636;29;20425;-74
2023/04/12 09:34:56;;;;;;;12.63;5.03;;;10.80;99.90;;;10.29;100.00;96034.63;4894828;29;20415;-75
2023/04/12 09:37:23;;;;;;;16.88;5.07;;;11.00;99.90;;;10.53;100.00;96034.59;4897859;29;20419;-74
2023/04/12 09:40:00;;;;;;;12.83;4.80;;;11.20;99.90;;;10.63;100.00;96045.84;4896944;29;20853;-73
2023/04/12 09:42:27;;;;;;;12.87;4.43;;;11.40;99.90;;;10.85;100.00;96037.34;4897119;29;20411;-76
2023/04/12 09:44:53;;;;;;;15.52;4.53;;;11.60;99.90;;;10.78;100.00;96040.34;4897379;29;21390;-76
2023/04/12 09:47:19;;;;;;;11.37;3.70;;;11.60;99.90;;;10.81;100.00;96041.66;4898003;29;20523;-74
2023/04/12 09:49:45;;;;;;;9.90;4.07;;;11.50;99.90;;;10.81;100.00;96049.59;4896003;29;20458;-74
2023/04/12 09:52:12;;;;;;;14.25;4.30;;;11.60;99.90;;;10.73;100.00;96035.13;4895247;29;20792;-75
2023/04/12 09:54:43;;;;;;;9.77;3.90;;;11.50;99.90;;;10.76;100.00;96036.41;4894694;29;20421;-75
2023/04/12 09:57:12;;;;;;;14.55;4.47;;;11.60;99.90;;;10.59;100.00;96026.31;4895552;29;20442;-75
2023/04/12 09:59:40;;;;;;;10.00;3.70;;;11.40;99.90;;;10.42;100.00;96016.22;4894171;29;20470;-75
2023/04/12 10:02:12;;;;;;;9.48;4.20;;;11.20;99.90;;;10.59;100.00;96013.09;4894222;29;20415;-74
2023/04/12 10:04:40;;;;;;;12.43;4.32;;;11.30;99.90;;;10.75;100.00;96019.75;4897158;29;20411;-76
2023/04/12 10:07:06;;;;;;;11.73;3.90;;;11.40;99.90;;;10.70;100.00;96019.03;4897257;29;20407;-75
2023/04/12 10:09:37;;;;;;;13.45;4.20;;;11.40;99.90;;;10.40;100.00;96010.41;4896874;29;20446;-76
2023/04/12 10:12:03;;;;;;;16.95;3.97;;;11.10;99.90;;;10.73;100.00;96010.53;4895865;29;20415;-76
2023/04/12 10:14:31;;;;;;;10.00;4.17;;;11.40;99.90;;;10.78;100.00;96002.50;4894853;29;20916;-75
2023/04/12 10:17:00;;;;;;;9.95;4.35;;;11.50;99.90;;;10.89;100.00;96006.59;4877271;29;20428;-76